Terminal Aerodrome Forecast
Issued by NWS Memphis, TN

Home | Current Version | Previous Version | Text Only | Print | Product List | Glossary On
Versions: 1 2 3 4 5 6 7 8 9 10 11 12 13 14
000
FTUS44 KMEG 252330
TAFJBR
TAF
KJBR 252330Z 2600/2624 29017G25KT P6SM VCSH BKN035
     FM260100 30015G22KT P6SM SCT015 OVC025
     FM260400 33014G20KT P6SM OVC015
     FM260900 32009KT P6SM OVC025
     FM261300 30008KT P6SM SCT035
     FM261900 24010G17KT P6SM FEW100=

USA.gov is the U.S. government's official web portal to all federal, state and local government web resources and services.